Time;durP1;ratioP1;P1;durP2;ratioP2;P2;SDS_P1;SDS_P2;PMS_P1;PMS_P2;Temp;Humidity;BMP_temperature;BMP_pressure;BME280_temperature;BME280_humidity;BME280_pressure;Samples;Min_cycle;Max_cycle;Signal;HPM_P1;HPM_P2
2021/11/03 06:13:48;;;;;;;;;;;;;;;9.13;100.00;99077.32;1728326;79;24971;-77
2021/11/03 06:16:14;;;;;;;;;;;;;;;9.15;100.00;99081.91;1675146;83;20483;-79
2021/11/03 06:18:40;;;;;;;;;;;;;;;9.13;100.00;99086.03;1689941;82;21099;-79
2021/11/03 06:21:05;;;;;;;;;;;;;;;9.13;100.00;99088.66;1683826;83;20181;-84
2021/11/03 06:23:31;;;;;;;;;;;;;;;9.19;100.00;99092.44;1683605;83;20196;-79
2021/11/03 06:25:56;;;;;;;;;;;;;;;9.12;100.00;99097.58;1684263;84;20441;-79
2021/11/03 06:28:22;;;;;;;;;;;;;;;9.08;100.00;99114.70;1687304;84;20145;-77
2021/11/03 06:30:48;;;;;;;;;;;;;;;9.21;100.00;99103.61;1681543;84;21206;-79
2021/11/03 06:33:13;;;;;;;;;;;;;;;9.20;100.00;99115.16;1683888;83;20404;-80
2021/11/03 06:35:40;;;;;;;;;;;;;;;9.33;100.00;99112.76;1682606;84;20190;-80
2021/11/03 06:38:09;;;;;;;;;;;;;;;9.33;100.00;99110.13;1657229;83;20196;-81
2021/11/03 06:40:35;;;;;;;;;;;;;;;9.38;100.00;99109.60;1680349;84;20183;-80
2021/11/03 06:43:02;;;;;;;;;;;;;;;9.14;100.00;99119.29;1663305;84;21124;-80
2021/11/03 06:45:30;;;;;;;;;;;;;;;9.27;100.00;99118.72;1683635;83;20119;-81
2021/11/03 06:47:55;;;;;;;;;;;;;;;9.18;100.00;99117.13;1688887;83;20255;-80
2021/11/03 06:50:25;;;;;;;;;;;;;;;9.25;100.00;99125.17;1679169;83;20127;-81
2021/11/03 06:52:51;;;;;;;;;;;;;;;9.31;100.00;99127.92;1680664;83;20194;-79
2021/11/03 06:55:17;;;;;;;;;;;;;;;9.42;100.00;99127.22;1661474;83;21988;-78
2021/11/03 06:57:44;;;;;;;;;;;;;;;9.43;100.00;99140.70;1668058;84;20117;-79
2021/11/03 07:00:14;;;;;;;;;;;;;;;9.37;100.00;99129.53;1662459;84;20136;-79
2021/11/03 07:02:40;;;;;;;;;;;;;;;9.37;100.00;99126.42;1684688;83;20273;-80
2021/11/03 07:05:06;;;;;;;;;;;;;;;9.51;100.00;99128.30;1684768;83;20198;-81
2021/11/03 07:07:34;;;;;;;;;;;;;;;9.56;100.00;99128.30;1684801;83;21184;-79
2021/11/03 07:09:59;;;;;;;;;;;;;;;9.34;100.00;99132.85;1681222;83;20139;-82
2021/11/03 07:12:27;;;;;;;;;;;;;;;9.42;100.00;99141.72;1686425;83;20530;-80
2021/11/03 07:14:54;;;;;;;;;;;;;;;9.39;100.00;99146.02;1701874;82;20124;-81
2021/11/03 07:17:20;;;;;;;;;;;;;;;9.24;100.00;99152.50;1731270;81;21082;-80
2021/11/03 07:19:46;;;;;;;;;;;;;;;9.27;100.00;99142.43;1731134;81;21159;-79
2021/11/03 07:22:11;;;;;;;;;;;;;;;9.22;100.00;99155.30;1737048;81;20474;-79
2021/11/03 07:24:37;;;;;;;;;;;;;;;9.18;100.00;99159.77;1737565;81;20111;-80
2021/11/03 07:27:03;;;;;;;;;;;;;;;9.22;100.00;99157.94;1735799;81;20144;-81
2021/11/03 07:29:29;;;;;;;;;;;;;;;9.26;100.00;99163.67;1733655;81;20201;-79
2021/11/03 07:31:54;;;;;;;;;;;;;;;9.16;100.00;99167.84;1735914;81;21861;-82
2021/11/03 07:34:20;;;;;;;;;;;;;;;9.25;100.00;99174.72;1731194;81;20222;-80
2021/11/03 07:36:46;;;;;;;;;;;;;;;9.32;100.00;99168.26;1740484;81;21189;-80
2021/11/03 07:39:13;;;;;;;;;;;;;;;9.21;100.00;99174.73;1734839;81;20132;-81
2021/11/03 07:41:39;;;;;;;;;;;;;;;9.26;100.00;99176.38;1729438;81;20211;-79
2021/11/03 07:44:05;;;;;;;;;;;;;;;9.18;100.00;99176.39;1734861;81;21138;-80
2021/11/03 07:46:35;;;;;;;;;;;;;;;9.13;100.00;99178.22;1733459;81;20440;-80
2021/11/03 07:49:00;;;;;;;;;;;;;;;9.16;100.00;99183.65;1738160;81;20147;-78
2021/11/03 07:51:27;;;;;;;;;;;;;;;9.05;100.00;99187.98;1733641;81;20123;-78
2021/11/03 07:53:58;;;;;;;;;;;;;;;9.39;100.00;99188.17;1705794;82;20164;-79
2021/11/03 07:56:22;;;;;;;;;;;;;;;9.48;100.00;99191.09;1732267;81;20118;-79
2021/11/03 07:58:48;;;;;;;;;;;;;;;9.44;100.00;99192.42;1732478;81;20146;-80
2021/11/03 08:01:17;;;;;;;;;;;;;;;9.14;100.00;99197.50;1731139;81;20120;-78
2021/11/03 08:03:44;;;;;;;;;;;;;;;9.34;100.00;99203.99;1736374;81;20167;-78
2021/11/03 08:06:14;;;;;;;;;;;;;;;9.53;100.00;99211.16;1732483;81;20174;-77
2021/11/03 08:08:49;;;;;;;;;;;;;;;9.50;100.00;99215.45;1712102;81;21837;-78
2021/11/03 08:11:14;;;;;;;;;;;;;;;9.32;100.00;99220.95;1728272;81;20139;-80
2021/11/03 08:13:39;;;;;;;;;;;;;;;9.41;100.00;99224.39;1735762;81;20287;-77
2021/11/03 08:16:05;;;;;;;;;;;;;;;9.38;100.00;99224.73;1717296;81;20165;-78
2021/11/03 08:18:40;;;;;;;;;;;;;;;9.43;100.00;99225.87;1716331;82;20149;-79
2021/11/03 08:21:11;;;;;;;;;;;;;;;9.46;100.00;99232.59;1719799;82;21177;-79
2021/11/03 08:23:38;;;;;;;;;;;;;;;9.42;100.00;99231.31;1716874;82;20130;-81
2021/11/03 08:26:07;;;;;;;;;;;;;;;9.30;100.00;99225.58;1718080;82;20167;-78
2021/11/03 08:28:33;;;;;;;;;;;;;;;9.22;100.00;99224.30;1720587;82;20136;-79
2021/11/03 08:30:59;;;;;;;;;;;;;;;9.40;100.00;99226.69;1717529;82;20196;-80
2021/11/03 08:33:34;;;;;;;;;;;;;;;9.48;100.00;99233.26;1715136;82;21098;-80
2021/11/03 08:36:06;;;;;;;;;;;;;;;9.44;100.00;99231.95;1714107;83;20224;-80
2021/11/03 08:38:32;;;;;;;;;;;;;;;9.52;100.00;99226.63;1712710;82;20134;-81
2021/11/03 08:40:58;;;;;;;;;;;;;;;9.56;100.00;99223.98;1694196;82;21023;-79
2021/11/03 08:43:29;;;;;;;;;;;;;;;9.62;100.00;99235.16;1718045;82;20141;-78
2021/11/03 08:45:55;;;;;;;;;;;;;;;9.79;100.00;99232.42;1716490;82;22451;-77
2021/11/03 08:48:24;;;;;;;;;;;;;;;9.75;100.00;99239.05;1716009;82;20170;-78
2021/11/03 08:50:50;;;;;;;;;;;;;;;9.68;100.00;99245.02;1717735;82;20153;-76
2021/11/03 08:53:17;;;;;;;;;;;;;;;9.63;100.00;99240.77;1717858;82;20446;-78
2021/11/03 08:55:44;;;;;;;;;;;;;;;9.77;100.00;99244.96;1714401;83;20188;-77
2021/11/03 08:58:12;;;;;;;;;;;;;;;9.74;100.00;99249.27;1715269;82;21131;-79
2021/11/03 09:00:38;;;;;;;;;;;;;;;9.78;100.00;99254.52;1719750;82;20163;-78
2021/11/03 09:03:04;;;;;;;;;;;;;;;9.96;100.00;99253.77;1712903;82;20203;-79
2021/11/03 09:05:31;;;;;;;;;;;;;;;10.12;100.00;99258.61;1720371;82;20452;-76
2021/11/03 09:07:57;;;;;;;;;;;;;;;10.20;99.05;99253.27;1716823;82;20264;-80
2021/11/03 09:10:23;;;;;;;;;;;;;;;10.18;98.91;99257.91;1710579;83;21243;-79
2021/11/03 09:12:49;;;;;;;;;;;;;;;10.20;99.20;99255.91;1716806;82;20159;-81
2021/11/03 09:15:18;;;;;;;;;;;;;;;10.45;98.14;99266.31;1715531;82;20465;-80
2021/11/03 09:17:44;;;;;;;;;;;;;;;10.44;98.30;99271.27;1727118;82;20479;-78
2021/11/03 09:20:11;;;;;;;;;;;;;;;10.41;98.18;99268.50;1727770;82;20261;-78
2021/11/03 09:22:37;;;;;;;;;;;;;;;10.35;98.36;99272.66;1725677;82;22115;-80
2021/11/03 09:25:05;;;;;;;;;;;;;;;10.40;97.85;99270.80;1724902;82;20508;-80
2021/11/03 09:27:33;;;;;;;;;;;;;;;10.50;97.06;99279.80;1727422;82;20168;-77
2021/11/03 09:30:00;;;;;;;;;;;;;;;10.52;96.81;99272.54;1727350;82;20156;-80
2021/11/03 09:32:29;;;;;;;;;;;;;;;10.59;96.41;99268.17;1731196;82;20511;-79
2021/11/03 09:34:58;;;;;;;;;;;;;;;10.56;95.71;99265.89;1721940;82;21365;-79
2021/11/03 09:37:27;;;;;;;;;;;;;;;10.60;95.17;99273.78;1699625;82;20226;-81
2021/11/03 09:39:53;;;;;;;;;;;;;;;10.67;95.48;99274.69;1724885;82;20171;-80
2021/11/03 09:42:22;;;;;;;;;;;;;;;10.72;94.83;99273.68;1729679;82;20204;-81
2021/11/03 09:44:48;;;;;;;;;;;;;;;10.83;93.46;99280.83;1724945;82;20177;-79
2021/11/03 09:47:23;;;;;;;;;;;;;;;10.68;93.84;99285.59;1726964;82;21029;-80
2021/11/03 09:50:02;;;;;;;;;;;;;;;10.80;93.42;99285.15;1728308;82;20396;-79
2021/11/03 09:52:37;;;;;;;;;;;;;;;10.83;93.66;99284.80;1727497;82;20371;-80
2021/11/03 09:55:21;;;;;;;;;;;;;;;10.88;93.47;99283.78;1727899;82;20985;-78
2021/11/03 09:57:55;;;;;;;;;;;;;;;10.91;92.47;99297.95;1729174;82;20179;-77
2021/11/03 10:00:28;;;;;;;;;;;;;;;10.90;92.56;99289.69;1727326;82;20127;-78
2021/11/03 10:03:01;;;;;;;;;;;;;;;11.10;91.87;99288.67;1733284;82;20273;-79
2021/11/03 10:05:49;;;;;;;;;;;;;;;11.15;91.49;99292.91;1730622;82;20202;-79
2021/11/03 10:08:20;;;;;;;;;;;;;;;11.34;91.55;99292.86;1726605;82;20174;-79
2021/11/03 10:10:59;;;;;;;;;;;;;;;11.40;90.65;99292.64;1694312;82;20533;-77
2021/11/03 10:13:35;;;;;;;;;;;;;;;11.34;91.12;99296.83;1705404;82;20995;-78
2021/11/03 10:16:16;;;;;;;;;;;;;;;11.27;91.28;99295.93;1721881;81;20157;-77
2021/11/03 10:19:07;;;;;;;;;;;;;;;11.35;91.29;99297.16;1721974;82;20279;-80
2021/11/03 10:21:50;;;;;;;;;;;;;;;11.22;92.74;99299.63;1726635;82;20201;-77
2021/11/03 10:24:20;;;;;;;;;;;;;;;11.29;92.52;99305.81;1729501;82;20164;-77
2021/11/03 10:26:58;;;;;;;;;;;;;;;11.53;92.04;99305.21;1713723;82;20971;-76
2021/11/03 10:29:36;;;;;;;;;;;;;;;11.69;91.51;99305.03;1726890;82;37922;-77
2021/11/03 10:32:08;;;;;;;;;;;;;;;11.75;90.41;99302.97;1724244;82;20214;-77
2021/11/03 10:34:38;;;;;;;;;;;;;;;11.73;90.44;99306.31;1728313;82;20126;-77
2021/11/03 10:37:22;;;;;;;;;;;;;;;11.85;89.56;99295.58;1728257;82;20267;-77
2021/11/03 10:39:59;;;;;;;;;;;;;;;11.87;89.11;99300.69;1731464;82;21079;-77
2021/11/03 10:42:28;;;;;;;;;;;;;;;12.15;88.87;99300.82;1729042;82;20142;-77
2021/11/03 10:45:34;;;;;;;;;;;;;;;12.28;87.44;99297.48;1731301;82;20294;-78
2021/11/03 10:48:27;;;;;;;;;;;;;;;12.21;86.02;99301.88;1730895;82;20131;-77
2021/11/03 10:51:01;;;;;;;;;;;;;;;12.40;85.15;99303.11;1733261;82;20117;-78
2021/11/03 10:53:30;;;;;;;;;;;;;;;12.20;85.19;99302.39;1706582;82;22140;-78
2021/11/03 10:56:08;;;;;;;;;;;;;;;12.21;85.42;99297.91;1684094;82;20128;-79
2021/11/03 10:58:52;;;;;;;;;;;;;;;12.30;84.09;99303.91;1727552;82;20495;-77
2021/11/03 11:01:30;;;;;;;;;;;;;;;12.42;84.68;99305.05;1727429;82;20150;-79
2021/11/03 11:04:06;;;;;;;;;;;;;;;12.55;84.36;99309.16;1728565;82;20187;-77
2021/11/03 11:06:37;;;;;;;;;;;;;;;12.37;82.72;99309.59;1729727;82;21177;-77
2021/11/03 11:09:19;;;;;;;;;;;;;;;12.35;81.98;99316.07;1733286;82;20171;-77
2021/11/03 11:11:48;;;;;;;;;;;;;;;12.33;82.20;99312.80;1729285;82;20141;-78
2021/11/03 11:14:20;;;;;;;;;;;;;;;12.28;81.43;99318.66;1698656;82;20632;-77
2021/11/03 11:17:01;;;;;;;;;;;;;;;12.50;81.86;99319.48;1716687;82;20546;-78
2021/11/03 11:19:53;;;;;;;;;;;;;;;12.71;81.62;99322.64;1718051;82;21132;-76
2021/11/03 11:22:44;;;;;;;;;;;;;;;12.60;81.04;99319.67;1714970;82;20122;-78
2021/11/03 11:25:21;;;;;;;;;;;;;;;12.57;80.88;99320.38;1692546;83;20151;-78
2021/11/03 11:27:57;;;;;;;;;;;;;;;12.69;81.19;99323.83;1715782;82;20212;-78
2021/11/03 11:30:24;;;;;;;;;;;;;;;12.76;80.69;99324.72;1716244;82;20186;-78
2021/11/03 11:33:07;;;;;;;;;;;;;;;12.92;79.81;99326.27;1695465;83;21527;-79
2021/11/03 11:35:39;;;;;;;;;;;;;;;12.98;79.51;99324.70;1710456;82;20191;-79
2021/11/03 11:38:22;;;;;;;;;;;;;;;12.91;78.76;99330.76;1717365;83;20215;-77
2021/11/03 11:40:57;;;;;;;;;;;;;;;13.05;78.55;99330.36;1690317;82;20199;-78
2021/11/03 11:43:42;;;;;;;;;;;;;;;13.13;77.82;99334.70;1717399;83;20200;-79
2021/11/03 11:46:23;;;;;;;;;;;;;;;12.98;77.28;99331.32;1711721;82;21140;-79
2021/11/03 11:48:51;;;;;;;;;;;;;;;13.18;76.81;99331.47;1716102;82;20224;-77
2021/11/03 11:51:24;;;;;;;;;;;;;;;13.24;75.22;99327.53;1716910;82;20136;-77
2021/11/03 11:53:58;;;;;;;;;;;;;;;13.28;75.11;99328.80;1713941;82;20205;-77
2021/11/03 11:56:27;;;;;;;;;;;;;;;13.36;75.03;99323.03;1714983;82;20083;-78
2021/11/03 11:59:13;;;;;;;;;;;;;;;13.11;74.36;99326.94;1714872;82;21099;-80
2021/11/03 12:01:54;;;;;;;;;;;;;;;13.18;74.49;99320.35;1705399;83;20220;-79
2021/11/03 12:04:32;;;;;;;;;;;;;;;13.20;74.16;99324.94;1718203;82;20178;-79
2021/11/03 12:07:02;;;;;;;;;;;;;;;13.39;73.55;99313.36;1714902;82;20224;-79
2021/11/03 12:09:58;;;;;;;;;;;;;;;13.23;72.71;99324.55;1712863;82;20093;-79
2021/11/03 12:12:24;;;;;;;;;;;;;;;13.27;72.89;99318.38;1714426;82;22139;-78
2021/11/03 12:14:56;;;;;;;;;;;;;;;13.16;72.55;99318.41;1715425;82;20138;-78
2021/11/03 12:17:44;;;;;;;;;;;;;;;13.08;72.99;99319.38;1703754;82;20661;-78
2021/11/03 12:20:28;;;;;;;;;;;;;;;13.14;72.58;99321.73;1694081;83;20235;-79
2021/11/03 12:22:59;;;;;;;;;;;;;;;13.20;71.95;99322.29;1701684;83;20231;-79
2021/11/03 12:25:28;;;;;;;;;;;;;;;13.22;71.62;99324.27;1695561;83;21126;-79
2021/11/03 12:27:55;;;;;;;;;;;;;;;13.20;72.29;99326.27;1698780;83;20622;-79
2021/11/03 12:30:37;;;;;;;;;;;;;;;13.57;72.20;99329.59;1681110;84;20186;-79
2021/11/03 12:33:11;;;;;;;;;;;;;;;13.74;70.58;99331.93;1702407;83;20136;-78
2021/11/03 12:35:40;;;;;;;;;;;;;;;13.88;70.68;99328.31;1700642;83;20552;-79
2021/11/03 12:38:16;;;;;;;;;;;;;;;13.78;69.82;99327.84;1699742;83;21260;-78
2021/11/03 12:40:44;;;;;;;;;;;;;;;13.87;68.76;99327.18;1699562;83;20171;-80
2021/11/03 12:43:30;;;;;;;;;;;;;;;14.07;68.60;99321.43;1694974;83;20661;-79
2021/11/03 12:46:15;;;;;;;;;;;;;;;13.89;68.06;99324.65;1701939;83;20131;-77
2021/11/03 12:48:54;;;;;;;;;;;;;;;14.00;68.31;99320.09;1699344;83;20544;-77
2021/11/03 12:51:25;;;;;;;;;;;;;;;14.11;67.34;99321.88;1700907;83;20221;-79
2021/11/03 12:54:03;;;;;;;;;;;;;;;14.13;67.04;99325.14;1697805;83;20306;-79
2021/11/03 12:56:34;;;;;;;;;;;;;;;13.94;67.25;99323.53;1702064;82;20228;-80
2021/11/03 12:59:02;;;;;;;;;;;;;;;14.16;67.13;99324.22;1700414;83;20204;-80
2021/11/03 13:01:34;;;;;;;;;;;;;;;14.23;66.91;99323.42;1702023;83;20204;-82
2021/11/03 13:04:03;;;;;;;;;;;;;;;14.35;66.82;99325.28;1691176;83;21174;-80
2021/11/03 13:06:35;;;;;;;;;;;;;;;14.45;66.82;99329.38;1697027;83;20216;-78
2021/11/03 13:09:02;;;;;;;;;;;;;;;14.55;66.54;99322.66;1700023;83;20203;-79
2021/11/03 13:11:35;;;;;;;;;;;;;;;14.64;66.47;99327.83;1702478;83;20302;-78
2021/11/03 13:14:00;;;;;;;;;;;;;;;14.61;65.77;99327.72;1701453;83;20151;-80
2021/11/03 13:16:32;;;;;;;;;;;;;;;14.49;65.34;99333.28;1696016;82;21169;-78
2021/11/03 13:18:59;;;;;;;;;;;;;;;14.79;65.54;99335.59;1713920;82;20251;-81
2021/11/03 13:21:34;;;;;;;;;;;;;;;14.61;63.80;99334.36;1718223;82;20983;-81
2021/11/03 13:24:28;;;;;;;;;;;;;;;14.67;64.25;99337.53;1719227;82;20188;-78
2021/11/03 13:26:54;;;;;;;;;;;;;;;14.97;64.05;99341.12;1717926;82;20209;-76
2021/11/03 13:29:26;;;;;;;;;;;;;;;15.07;62.77;99346.86;1694543;83;21106;-79
2021/11/03 13:32:17;;;;;;;;;;;;;;;15.26;62.32;99357.69;1719923;83;20195;-79
2021/11/03 13:35:04;;;;;;;;;;;;;;;15.53;62.18;99352.31;1716103;83;20274;-79
2021/11/03 13:37:35;;;;;;;;;;;;;;;15.70;61.55;99356.67;1718434;82;20202;-79
2021/11/03 13:40:13;;;;;;;;;;;;;;;15.51;60.48;99361.03;1694424;83;20735;-82
2021/11/03 13:42:44;;;;;;;;;;;;;;;15.84;60.84;99360.15;1718519;82;21131;-79
2021/11/03 13:45:25;;;;;;;;;;;;;;;16.01;59.43;99351.98;1718534;81;20179;-78
2021/11/03 13:48:07;;;;;;;;;;;;;;;17.45;55.86;99360.76;1717971;82;20247;-78
2021/11/03 13:50:42;;;;;;;;;;;;;;;22.04;44.75;99358.11;1722078;82;20145;-80
2021/11/03 13:53:12;;;;;;;;;;;;;;;23.46;40.06;99364.77;1702262;83;20117;-79
2021/11/03 13:55:59;;;;;;;;;;;;;;;24.56;38.23;99365.73;1718728;82;21986;-79
2021/11/03 13:58:48;;;;;;;;;;;;;;;25.14;37.21;99376.84;1704583;82;20129;-79
2021/11/03 14:01:22;;;;;;;;;;;;;;;25.91;35.26;99373.98;1715670;82;20640;-81
2021/11/03 14:04:02;;;;;;;;;;;;;;;26.08;34.78;99376.37;1715055;82;20689;-79
2021/11/03 14:06:46;;;;;;;;;;;;;;;26.04;34.27;99375.30;1714620;82;20183;-78
2021/11/03 14:09:22;;;;;;;;;;;;;;;24.94;36.41;99369.56;1718175;82;20162;-79
2021/11/03 14:11:55;;;;;;;;;;;;;;;25.59;35.25;99375.17;1715254;83;20518;-79
2021/11/03 14:14:23;;;;;;;;;;;;;;;25.62;34.17;99377.32;1716485;81;20110;-80
2021/11/03 14:17:08;;;;;;;;;;;;;;;25.43;35.09;99375.23;1713049;82;20138;-81
2021/11/03 14:19:38;;;;;;;;;;;;;;;24.92;34.87;99381.98;1660929;83;20596;-82
2021/11/03 14:22:04;;;;;;;;;;;;;;;24.51;36.01;99392.73;1702181;82;21218;-80
2021/11/03 14:24:32;;;;;;;;;;;;;;;24.01;37.06;99399.86;1697728;83;20434;-80
2021/11/03 14:27:02;;;;;;;;;;;;;;;23.19;38.04;99402.05;1699782;83;20489;-79
2021/11/03 14:29:27;;;;;;;;;;;;;;;23.17;38.56;99402.85;1692850;83;20486;-82
2021/11/03 14:31:53;;;;;;;;;;;;;;;22.55;39.23;99403.62;1694949;83;20196;-79
2021/11/03 14:34:27;;;;;;;;;;;;;;;21.72;40.59;99404.21;1692277;83;21126;-82
2021/11/03 14:36:53;;;;;;;;;;;;;;;20.92;42.29;99409.70;1697418;83;20484;-80
2021/11/03 14:39:24;;;;;;;;;;;;;;;20.44;43.37;99408.53;1701141;83;21156;-82
2021/11/03 14:41:52;;;;;;;;;;;;;;;19.74;44.82;99414.87;1692356;83;20302;-82
2021/11/03 14:44:17;;;;;;;;;;;;;;;19.33;45.86;99413.42;1696998;84;20178;-81
2021/11/03 14:46:46;;;;;;;;;;;;;;;18.79;47.02;99408.59;1691788;83;21081;-81
2021/11/03 14:49:29;;;;;;;;;;;;;;;18.36;48.88;99406.91;1696304;83;20166;-79
2021/11/03 14:51:56;;;;;;;;;;;;;;;17.79;49.24;99403.95;1695650;83;20255;-80
2021/11/03 14:54:22;;;;;;;;;;;;;;;17.43;50.51;99401.52;1694065;83;20495;-80
2021/11/03 14:56:48;;;;;;;;;;;;;;;17.16;51.37;99403.08;1690957;83;20128;-81
2021/11/03 14:59:14;;;;;;;;;;;;;;;17.07;51.42;99399.05;1695493;83;21388;-81
2021/11/03 15:01:43;;;;;;;;;;;;;;;16.40;53.07;99399.97;1694982;83;20794;-80
2021/11/03 15:04:15;;;;;;;;;;;;;;;16.23;53.69;99400.97;1698592;83;20187;-78
2021/11/03 15:06:43;;;;;;;;;;;;;;;16.01;54.10;99399.92;1696495;83;21020;-82
2021/11/03 15:09:19;;;;;;;;;;;;;;;15.75;55.02;99410.09;1695979;83;20185;-80
2021/11/03 15:11:44;;;;;;;;;;;;;;;15.60;55.59;99411.67;1689050;83;21118;-80
2021/11/03 15:14:10;;;;;;;;;;;;;;;15.35;56.35;99412.31;1697442;83;20941;-81
2021/11/03 15:16:36;;;;;;;;;;;;;;;15.13;56.91;99405.55;1693328;83;20159;-79
2021/11/03 15:19:03;;;;;;;;;;;;;;;14.89;58.18;99411.26;1696837;81;20114;-79
2021/11/03 15:21:28;;;;;;;;;;;;;;;14.74;58.77;99413.27;1699081;82;20172;-79
2021/11/03 15:23:54;;;;;;;;;;;;;;;14.60;58.99;99415.08;1731412;81;21864;-80
2021/11/03 15:26:19;;;;;;;;;;;;;;;14.47;59.48;99410.52;1730365;81;20156;-79
2021/11/03 15:28:46;;;;;;;;;;;;;;;14.26;60.56;99416.80;1724961;81;20496;-82
2021/11/03 15:31:18;;;;;;;;;;;;;;;14.15;60.95;99418.67;1731042;81;20752;-79
2021/11/03 15:33:44;;;;;;;;;;;;;;;14.06;61.16;99422.52;1725102;81;20149;-79
2021/11/03 15:36:10;;;;;;;;;;;;;;;13.93;61.52;99417.44;1728644;81;22351;-82
2021/11/03 15:38:39;;;;;;;;;;;;;;;13.76;62.51;99424.09;1704886;82;20119;-81
2021/11/03 15:41:07;;;;;;;;;;;;;;;13.63;63.08;99430.14;1719594;81;20167;-77
2021/11/03 15:43:34;;;;;;;;;;;;;;;13.52;63.58;99432.00;1731717;81;20197;-80
2021/11/03 15:46:00;;;;;;;;;;;;;;;13.40;64.30;99425.88;1724815;82;20335;-80
2021/11/03 15:48:27;;;;;;;;;;;;;;;13.30;64.53;99434.66;1730868;81;22608;-78
2021/11/03 15:51:00;;;;;;;;;;;;;;;13.07;66.71;99430.89;1728955;81;20902;-79
2021/11/03 15:53:28;;;;;;;;;;;;;;;12.86;67.84;99435.16;1730759;81;20135;-79
2021/11/03 15:55:59;;;;;;;;;;;;;;;12.76;68.68;99432.02;1724534;81;20173;-79
2021/11/03 15:58:25;;;;;;;;;;;;;;;12.72;69.43;99436.04;1730413;81;20279;-80
2021/11/03 16:00:55;;;;;;;;;;;;;;;12.59;69.70;99430.62;1701099;81;21101;-80
2021/11/03 16:03:39;;;;;;;;;;;;;;;12.43;70.65;99429.83;1727265;81;20189;-79
2021/11/03 16:06:06;;;;;;;;;;;;;;;12.33;70.80;99434.08;1699441;81;20991;-81
2021/11/03 16:08:32;;;;;;;;;;;;;;;12.28;70.72;99433.81;1731414;81;20179;-80
2021/11/03 16:10:57;;;;;;;;;;;;;;;12.24;71.66;99439.66;1728232;81;20524;-80
2021/11/03 16:13:26;;;;;;;;;;;;;;;12.17;71.89;99435.11;1730725;81;21295;-81
2021/11/03 16:15:52;;;;;;;;;;;;;;;12.17;72.06;99441.72;1731235;81;20176;-78
2021/11/03 16:18:21;;;;;;;;;;;;;;;12.12;71.92;99441.46;1719089;81;20436;-80
2021/11/03 16:20:47;;;;;;;;;;;;;;;12.13;72.23;99448.38;1716928;82;20194;-80
2021/11/03 16:23:16;;;;;;;;;;;;;;;12.03;72.88;99445.20;1692759;82;20160;-79
2021/11/03 16:25:44;;;;;;;;;;;;;;;12.02;72.61;99448.37;1719056;82;21928;-79
2021/11/03 16:28:14;;;;;;;;;;;;;;;11.98;72.77;99458.17;1721735;82;20210;-78
2021/11/03 16:30:44;;;;;;;;;;;;;;;12.00;72.44;99458.80;1720469;82;20437;-79
2021/11/03 16:33:10;;;;;;;;;;;;;;;11.93;73.28;99465.81;1723463;82;20222;-79
2021/11/03 16:35:35;;;;;;;;;;;;;;;11.89;73.55;99460.05;1725284;82;20123;-79
2021/11/03 16:38:03;;;;;;;;;;;;;;;11.88;73.63;99466.84;1725343;82;22035;-77
2021/11/03 16:40:35;;;;;;;;;;;;;;;11.90;73.27;99470.11;1725511;82;20121;-79
2021/11/03 16:43:07;;;;;;;;;;;;;;;11.92;73.24;99466.81;1720642;82;20189;-81
2021/11/03 16:45:45;;;;;;;;;;;;;;;11.91;73.02;99471.77;1725449;82;20126;-80
2021/11/03 16:48:24;;;;;;;;;;;;;;;11.92;72.88;99470.30;1722468;82;20628;-79
2021/11/03 16:50:56;;;;;;;;;;;;;;;11.85;73.84;99468.86;1718116;82;21094;-81
2021/11/03 16:53:27;;;;;;;;;;;;;;;11.84;73.47;99468.53;1722993;82;20198;-80
2021/11/03 16:55:55;;;;;;;;;;;;;;;11.80;73.88;99469.88;1721106;82;20141;-80
2021/11/03 16:58:21;;;;;;;;;;;;;;;11.76;73.93;99470.42;1721861;82;20608;-83
2021/11/03 17:00:53;;;;;;;;;;;;;;;11.70;74.96;99474.63;1724517;82;20180;-81
2021/11/03 17:03:20;;;;;;;;;;;;;;;11.72;74.44;99477.91;1705756;82;21292;-80
2021/11/03 17:05:49;;;;;;;;;;;;;;;11.67;74.87;99484.25;1701500;82;20123;-81
2021/11/03 17:08:33;;;;;;;;;;;;;;;11.59;75.47;99489.11;1718824;82;20248;-81
2021/11/03 17:11:03;;;;;;;;;;;;;;;11.59;75.69;99493.55;1723530;82;20605;-82
2021/11/03 17:13:28;;;;;;;;;;;;;;;11.54;76.03;99492.77;1719469;82;20111;-82
2021/11/03 17:15:57;;;;;;;;;;;;;;;11.49;76.22;99497.27;1723683;82;20993;-82
2021/11/03 17:18:23;;;;;;;;;;;;;;;11.47;76.59;99499.27;1716089;82;20228;-80
2021/11/03 17:20:50;;;;;;;;;;;;;;;11.43;76.63;99495.33;1709737;82;20203;-79
2021/11/03 17:23:17;;;;;;;;;;;;;;;11.39;76.79;99495.39;1714775;82;20210;-80
2021/11/03 17:25:44;;;;;;;;;;;;;;;11.41;77.13;99499.98;1708238;82;20177;-81
2021/11/03 17:28:17;;;;;;;;;;;;;;;11.42;77.05;99503.44;1686852;82;20128;-79
2021/11/03 17:30:43;;;;;;;;;;;;;;;11.42;77.33;99508.73;1708501;82;20269;-79
2021/11/03 17:33:12;;;;;;;;;;;;;;;11.43;76.89;99503.27;1690337;82;20635;-78
2021/11/03 17:35:39;;;;;;;;;;;;;;;11.43;76.72;99505.09;1687788;82;20078;-79
2021/11/03 17:38:09;;;;;;;;;;;;;;;11.43;76.71;99503.27;1710571;82;20157;-80
2021/11/03 17:40:35;;;;;;;;;;;;;;;11.40;76.88;99503.62;1689476;83;20844;-78
2021/11/03 17:43:02;;;;;;;;;;;;;;;11.43;76.66;99503.27;1706702;82;20150;-78
2021/11/03 17:45:34;;;;;;;;;;;;;;;11.34;76.58;99493.75;1703927;82;20660;-79
2021/11/03 17:48:06;;;;;;;;;;;;;;;11.33;77.06;99505.34;1710677;82;20208;-77
2021/11/03 17:50:35;;;;;;;;;;;;;;;11.31;77.06;99501.56;1707915;82;20159;-78
2021/11/03 17:53:00;;;;;;;;;;;;;;;11.21;77.87;99493.55;1712166;82;21096;-78
2021/11/03 17:55:29;;;;;;;;;;;;;;;11.18;78.42;99500.50;1713446;82;20354;-79
2021/11/03 17:58:01;;;;;;;;;;;;;;;11.22;78.44;99501.80;1715319;82;20246;-79
2021/11/03 18:00:31;;;;;;;;;;;;;;;11.21;78.48;99502.79;1692421;82;20584;-81
2021/11/03 18:02:57;;;;;;;;;;;;;;;11.21;78.45;99501.47;1711933;82;21059;-80
2021/11/03 18:05:34;;;;;;;;;;;;;;;11.25;78.26;99495.66;1714474;82;21076;-77
2021/11/03 18:08:04;;;;;;;;;;;;;;;11.18;78.87;99504.47;1710147;82;20136;-79
2021/11/03 18:10:30;;;;;;;;;;;;;;;11.26;78.58;99505.72;1688230;83;20247;-80
2021/11/03 18:13:04;;;;;;;;;;;;;;;11.23;78.46;99496.82;1713087;82;20233;-79
2021/11/03 18:15:30;;;;;;;;;;;;;;;11.25;78.38;99506.23;1712641;82;20151;-80
2021/11/03 18:17:59;;;;;;;;;;;;;;;11.24;78.18;99502.44;1709017;82;21146;-79
2021/11/03 18:20:33;;;;;;;;;;;;;;;11.18;78.44;99508.43;1714911;82;20218;-78
2021/11/03 18:23:00;;;;;;;;;;;;;;;11.17;78.37;99500.17;1717623;82;20181;-79
2021/11/03 18:25:26;;;;;;;;;;;;;;;11.12;78.42;99504.18;1704276;82;20652;-79
2021/11/03 18:27:55;;;;;;;;;;;;;;;11.16;78.23;99491.42;1719529;82;20277;-79
2021/11/03 18:30:27;;;;;;;;;;;;;;;11.13;78.41;99485.98;1717141;82;21844;-78
2021/11/03 18:32:53;;;;;;;;;;;;;;;11.01;79.14;99486.06;1717182;82;21086;-78
2021/11/03 18:35:19;;;;;;;;;;;;;;;11.04;78.85;99481.75;1719364;82;20178;-78
2021/11/03 18:37:47;;;;;;;;;;;;;;;10.99;78.99;99482.79;1724024;82;21036;-78
2021/11/03 18:40:17;;;;;;;;;;;;;;;11.01;78.93;99488.70;1725965;82;20200;-78
2021/11/03 18:42:47;;;;;;;;;;;;;;;11.00;79.00;99481.80;1723645;82;22607;-79
2021/11/03 18:45:34;;;;;;;;;;;;;;;11.00;78.75;99479.16;1692653;82;20237;-78
2021/11/03 18:48:04;;;;;;;;;;;;;;;10.93;79.29;99483.48;1722818;82;20120;-77
2021/11/03 18:50:33;;;;;;;;;;;;;;;10.87;79.41;99497.39;1721312;82;20550;-80
2021/11/03 18:53:05;;;;;;;;;;;;;;;10.88;79.28;99497.73;1719123;82;20669;-81
2021/11/03 18:55:34;;;;;;;;;;;;;;;10.84;79.61;99488.50;1704988;82;21957;-79
2021/11/03 18:58:00;;;;;;;;;;;;;;;10.87;79.50;99489.47;1726468;82;20136;-76
2021/11/03 19:00:31;;;;;;;;;;;;;;;10.85;79.75;99491.47;1706236;82;20217;-82
2021/11/03 19:03:00;;;;;;;;;;;;;;;10.79;80.18;99479.77;1724737;82;20155;-81
2021/11/03 19:05:26;;;;;;;;;;;;;;;10.77;80.37;99483.91;1724170;82;20171;-77
2021/11/03 19:07:54;;;;;;;;;;;;;;;10.78;80.24;99468.88;1717437;82;21090;-79
2021/11/03 19:10:23;;;;;;;;;;;;;;;10.70;80.70;99475.02;1722123;82;20468;-78
2021/11/03 19:12:53;;;;;;;;;;;;;;;10.63;81.67;99472.77;1723505;82;20133;-80
2021/11/03 19:15:22;;;;;;;;;;;;;;;10.71;81.10;99470.08;1727580;82;20147;-80
2021/11/03 19:17:50;;;;;;;;;;;;;;;10.72;81.08;99474.38;1725618;82;20127;-80
2021/11/03 19:20:18;;;;;;;;;;;;;;;10.71;81.31;99479.83;1721252;81;21054;-79